sensor_id;sensor_type;location;lat;lon;timestamp;pressure;altitude;pressure_sealevel;temperature;humidity
60228;BME280;46091;46.512;6.626;2023-06-22T05:28:28;96956.09;;;25.18;61.97
60228;BME280;46091;46.512;6.626;2023-06-22T05:30:31;96957.78;;;25.43;61.49
60228;BME280;46091;46.512;6.626;2023-06-22T05:32:34;96969.25;;;25.64;60.79
60228;BME280;46091;46.512;6.626;2023-06-22T05:34:38;96976.19;;;25.75;60.50
60228;BME280;46091;46.512;6.626;2023-06-22T05:36:41;97031.88;;;25.86;60.40
60228;BME280;46091;46.512;6.626;2023-06-22T05:38:45;97021.75;;;25.97;60.18
60228;BME280;46091;46.512;6.626;2023-06-22T05:40:48;97010.81;;;26.07;59.83
60228;BME280;46091;46.512;6.626;2023-06-22T05:42:51;96954.88;;;26.16;59.65
60228;BME280;46091;46.512;6.626;2023-06-22T05:44:55;97002.28;;;26.19;59.25
60228;BME280;46091;46.512;6.626;2023-06-22T05:47:00;96991.38;;;26.24;59.35
60228;BME280;46091;46.512;6.626;2023-06-22T05:49:03;97003.00;;;26.29;59.09
60228;BME280;46091;46.512;6.626;2023-06-22T05:51:06;97018.66;;;26.32;59.01
60228;BME280;46091;46.512;6.626;2023-06-22T05:53:09;97035.69;;;26.38;58.71
60228;BME280;46091;46.512;6.626;2023-06-22T05:55:14;97035.13;;;26.41;58.87
60228;BME280;46091;46.512;6.626;2023-06-22T05:57:20;97029.63;;;26.46;58.57
60228;BME280;46091;46.512;6.626;2023-06-22T05:59:23;97018.75;;;26.51;58.49
60228;BME280;46091;46.512;6.626;2023-06-22T06:01:28;97010.53;;;26.56;58.28
60228;BME280;46091;46.512;6.626;2023-06-22T06:03:35;97009.94;;;26.59;58.35
60228;BME280;46091;46.512;6.626;2023-06-22T06:05:42;97040.03;;;26.63;58.22
60228;BME280;46091;46.512;6.626;2023-06-22T06:07:46;97028.09;;;26.64;58.11
60228;BME280;46091;46.512;6.626;2023-06-22T06:09:49;97018.56;;;26.66;58.07
60228;BME280;46091;46.512;6.626;2023-06-22T06:11:52;97017.75;;;26.66;58.02
60228;BME280;46091;46.512;6.626;2023-06-22T06:13:56;97017.16;;;26.69;58.24
60228;BME280;46091;46.512;6.626;2023-06-22T06:15:59;97020.38;;;26.71;57.93
60228;BME280;46091;46.512;6.626;2023-06-22T06:18:04;97017.38;;;26.73;57.92
60228;BME280;46091;46.512;6.626;2023-06-22T06:20:09;97014.66;;;26.73;57.88
60228;BME280;46091;46.512;6.626;2023-06-22T06:22:13;96997.59;;;26.72;57.99
60228;BME280;46091;46.512;6.626;2023-06-22T06:24:17;96990.78;;;26.75;57.85
60228;BME280;46091;46.512;6.626;2023-06-22T06:26:19;96956.34;;;26.75;57.96
60228;BME280;46091;46.512;6.626;2023-06-22T06:28:30;96940.06;;;26.75;57.55
60228;BME280;46091;46.512;6.626;2023-06-22T06:30:33;96932.75;;;26.76;57.72
60228;BME280;46091;46.512;6.626;2023-06-22T06:32:39;96909.94;;;26.77;57.69
60228;BME280;46091;46.512;6.626;2023-06-22T06:34:43;96900.69;;;26.78;57.72
60228;BME280;46091;46.512;6.626;2023-06-22T06:36:46;96906.63;;;26.80;57.32
60228;BME280;46091;46.512;6.626;2023-06-22T06:38:49;96903.91;;;26.80;57.50
60228;BME280;46091;46.512;6.626;2023-06-22T06:40:52;96886.53;;;26.81;57.50
60228;BME280;46091;46.512;6.626;2023-06-22T06:42:55;96864.34;;;26.79;57.32
60228;BME280;46091;46.512;6.626;2023-06-22T06:44:58;96865.44;;;26.78;57.38
60228;BME280;46091;46.512;6.626;2023-06-22T06:47:01;96850.28;;;26.77;57.26
60228;BME280;46091;46.512;6.626;2023-06-22T06:49:07;96854.31;;;26.79;57.25
60228;BME280;46091;46.512;6.626;2023-06-22T06:51:11;96878.72;;;26.79;57.23
60228;BME280;46091;46.512;6.626;2023-06-22T06:53:14;96882.72;;;26.82;57.33
60228;BME280;46091;46.512;6.626;2023-06-22T06:55:17;96888.66;;;26.84;57.28
60228;BME280;46091;46.512;6.626;2023-06-22T06:57:22;96910.91;;;26.86;57.25
60228;BME280;46091;46.512;6.626;2023-06-22T06:59:25;96927.69;;;26.88;57.02
60228;BME280;46091;46.512;6.626;2023-06-22T07:01:28;96937.13;;;26.90;56.96
60228;BME280;46091;46.512;6.626;2023-06-22T07:03:35;96948.78;;;26.91;56.77
60228;BME280;46091;46.512;6.626;2023-06-22T07:05:38;96943.34;;;26.91;56.79
60228;BME280;46091;46.512;6.626;2023-06-22T07:07:42;96929.50;;;26.92;56.89
60228;BME280;46091;46.512;6.626;2023-06-22T07:09:45;96893.63;;;26.95;56.87
60228;BME280;46091;46.512;6.626;2023-06-22T07:11:48;96898.84;;;26.92;56.83
60228;BME280;46091;46.512;6.626;2023-06-22T07:13:51;96906.19;;;26.91;56.69
60228;BME280;46091;46.512;6.626;2023-06-22T07:15:54;96921.06;;;26.94;56.80
60228;BME280;46091;46.512;6.626;2023-06-22T07:17:57;96915.88;;;26.97;56.77
60228;BME280;46091;46.512;6.626;2023-06-22T07:20:03;96932.94;;;26.98;56.69
60228;BME280;46091;46.512;6.626;2023-06-22T07:22:11;96941.31;;;27.02;56.79
60228;BME280;46091;46.512;6.626;2023-06-22T07:24:15;96940.72;;;27.05;56.75
60228;BME280;46091;46.512;6.626;2023-06-22T07:26:18;96939.84;;;27.09;56.70
60228;BME280;46091;46.512;6.626;2023-06-22T07:28:22;96942.28;;;27.11;56.69
60228;BME280;46091;46.512;6.626;2023-06-22T07:30:25;96949.81;;;27.14;56.53
60228;BME280;46091;46.512;6.626;2023-06-22T07:32:29;96938.66;;;27.15;56.64
60228;BME280;46091;46.512;6.626;2023-06-22T07:34:32;96918.56;;;27.16;56.49
60228;BME280;46091;46.512;6.626;2023-06-22T07:36:35;96903.09;;;27.17;56.38
60228;BME280;46091;46.512;6.626;2023-06-22T07:38:38;96881.38;;;27.17;56.38
60228;BME280;46091;46.512;6.626;2023-06-22T07:40:43;96869.72;;;27.16;56.09
60228;BME280;46091;46.512;6.626;2023-06-22T07:42:46;96866.44;;;27.19;55.99
60228;BME280;46091;46.512;6.626;2023-06-22T07:44:51;96850.66;;;27.21;56.02
60228;BME280;46091;46.512;6.626;2023-06-22T07:46:54;96839.19;;;27.24;56.05
60228;BME280;46091;46.512;6.626;2023-06-22T07:48:57;96835.06;;;27.27;55.77
60228;BME280;46091;46.512;6.626;2023-06-22T07:51:01;96820.69;;;27.26;55.68
60228;BME280;46091;46.512;6.626;2023-06-22T07:53:04;96816.97;;;27.22;55.64
60228;BME280;46091;46.512;6.626;2023-06-22T07:55:07;96814.25;;;27.22;55.68
60228;BME280;46091;46.512;6.626;2023-06-22T07:57:12;96800.19;;;27.20;55.63
60228;BME280;46091;46.512;6.626;2023-06-22T07:59:15;96786.81;;;27.24;55.38
60228;BME280;46091;46.512;6.626;2023-06-22T08:01:18;96781.59;;;27.27;55.46
60228;BME280;46091;46.512;6.626;2023-06-22T08:03:22;96776.16;;;27.27;55.56
60228;BME280;46091;46.512;6.626;2023-06-22T08:05:26;96763.38;;;27.28;55.20
60228;BME280;46091;46.512;6.626;2023-06-22T08:07:29;96765.00;;;27.29;55.15
60228;BME280;46091;46.512;6.626;2023-06-22T08:09:34;96761.41;;;27.34;55.07
60228;BME280;46091;46.512;6.626;2023-06-22T08:11:38;96741.78;;;27.37;54.97
60228;BME280;46091;46.512;6.626;2023-06-22T08:13:42;96746.59;;;27.40;54.73
60228;BME280;46091;46.512;6.626;2023-06-22T08:15:45;96751.44;;;27.43;54.71
60228;BME280;46091;46.512;6.626;2023-06-22T08:17:51;96750.03;;;27.45;54.56
60228;BME280;46091;46.512;6.626;2023-06-22T08:19:54;96748.94;;;27.46;54.32
60228;BME280;46091;46.512;6.626;2023-06-22T08:21:58;96747.00;;;27.47;54.34
60228;BME280;46091;46.512;6.626;2023-06-22T08:24:01;96751.84;;;27.50;54.15
60228;BME280;46091;46.512;6.626;2023-06-22T08:26:04;96761.00;;;27.54;54.33
60228;BME280;46091;46.512;6.626;2023-06-22T08:28:07;96752.25;;;27.57;54.23
60228;BME280;46091;46.512;6.626;2023-06-22T08:30:12;96764.72;;;27.58;54.14
60228;BME280;46091;46.512;6.626;2023-06-22T08:32:17;96776.38;;;27.59;54.11
60228;BME280;46091;46.512;6.626;2023-06-22T08:34:20;96779.88;;;27.59;54.21
60228;BME280;46091;46.512;6.626;2023-06-22T08:36:29;96776.06;;;27.60;54.23
60228;BME280;46091;46.512;6.626;2023-06-22T08:38:34;96774.47;;;27.59;54.30
60228;BME280;46091;46.512;6.626;2023-06-22T08:40:39;96766.81;;;27.61;54.08
60228;BME280;46091;46.512;6.626;2023-06-22T08:42:42;96768.13;;;27.64;54.21
60228;BME280;46091;46.512;6.626;2023-06-22T08:44:45;96761.63;;;27.65;53.93
60228;BME280;46091;46.512;6.626;2023-06-22T08:46:50;96751.00;;;27.63;54.14
60228;BME280;46091;46.512;6.626;2023-06-22T08:48:53;96759.78;;;27.60;54.12
60228;BME280;46091;46.512;6.626;2023-06-22T08:50:56;96760.56;;;27.61;54.17
60228;BME280;46091;46.512;6.626;2023-06-22T08:52:59;96767.59;;;27.62;54.35
60228;BME280;46091;46.512;6.626;2023-06-22T08:55:02;96768.72;;;27.61;54.16
60228;BME280;46091;46.512;6.626;2023-06-22T08:57:06;96755.94;;;27.61;54.14
60228;BME280;46091;46.512;6.626;2023-06-22T08:59:09;96746.69;;;27.62;54.15
60228;BME280;46091;46.512;6.626;2023-06-22T09:01:12;96742.88;;;27.63;54.25
60228;BME280;46091;46.512;6.626;2023-06-22T09:03:18;96745.34;;;27.65;54.06
60228;BME280;46091;46.512;6.626;2023-06-22T09:05:22;96741.50;;;27.66;54.11
60228;BME280;46091;46.512;6.626;2023-06-22T09:07:25;96765.94;;;27.66;54.25
60228;BME280;46091;46.512;6.626;2023-06-22T09:09:28;96766.75;;;27.66;54.21
60228;BME280;46091;46.512;6.626;2023-06-22T09:11:32;96754.56;;;27.64;54.16
60228;BME280;46091;46.512;6.626;2023-06-22T09:13:35;96780.06;;;27.63;54.26
60228;BME280;46091;46.512;6.626;2023-06-22T09:15:38;96799.41;;;27.61;54.28
60228;BME280;46091;46.512;6.626;2023-06-22T09:17:41;96775.75;;;27.62;54.11
60228;BME280;46091;46.512;6.626;2023-06-22T09:19:46;96779.88;;;27.59;54.16
60228;BME280;46091;46.512;6.626;2023-06-22T09:21:51;96766.63;;;27.58;54.32
60228;BME280;46091;46.512;6.626;2023-06-22T09:23:58;96771.25;;;27.57;54.34
60228;BME280;46091;46.512;6.626;2023-06-22T09:26:02;96779.88;;;27.59;54.33
60228;BME280;46091;46.512;6.626;2023-06-22T09:28:05;96786.91;;;27.60;54.45
60228;BME280;46091;46.512;6.626;2023-06-22T09:30:09;96781.19;;;27.62;54.34
60228;BME280;46091;46.512;6.626;2023-06-22T09:32:12;96783.09;;;27.61;54.35
60228;BME280;46091;46.512;6.626;2023-06-22T09:34:17;96787.41;;;27.62;54.49
60228;BME280;46091;46.512;6.626;2023-06-22T09:36:23;96786.31;;;27.63;54.43
60228;BME280;46091;46.512;6.626;2023-06-22T09:38:26;96806.44;;;27.62;54.47
60228;BME280;46091;46.512;6.626;2023-06-22T09:40:29;96809.44;;;27.61;54.45
60228;BME280;46091;46.512;6.626;2023-06-22T09:42:34;96819.50;;;27.60;54.38
60228;BME280;46091;46.512;6.626;2023-06-22T09:44:39;96830.38;;;27.60;54.37
60228;BME280;46091;46.512;6.626;2023-06-22T09:46:42;96842.84;;;27.61;54.54
60228;BME280;46091;46.512;6.626;2023-06-22T09:48:45;96855.31;;;27.62;54.46
60228;BME280;46091;46.512;6.626;2023-06-22T09:50:48;96876.53;;;27.60;54.77
60228;BME280;46091;46.512;6.626;2023-06-22T09:52:52;96877.66;;;27.59;54.36
60228;BME280;46091;46.512;6.626;2023-06-22T09:54:56;96880.97;;;27.56;54.18
60228;BME280;46091;46.512;6.626;2023-06-22T09:56:59;96902.19;;;27.54;54.32
60228;BME280;46091;46.512;6.626;2023-06-22T09:59:02;96916.06;;;27.52;54.20
60228;BME280;46091;46.512;6.626;2023-06-22T10:01:19;96944.03;;;27.53;54.28
60228;BME280;46091;46.512;6.626;2023-06-22T10:03:23;96945.69;;;27.49;54.04
60228;BME280;46091;46.512;6.626;2023-06-22T10:05:26;96942.78;;;27.45;54.09
60228;BME280;46091;46.512;6.626;2023-06-22T10:07:30;96948.28;;;27.40;54.42
60228;BME280;46091;46.512;6.626;2023-06-22T10:09:34;96950.00;;;27.36;54.39
60228;BME280;46091;46.512;6.626;2023-06-22T10:11:37;96958.44;;;27.35;54.67
60228;BME280;46091;46.512;6.626;2023-06-22T10:13:40;96963.88;;;27.35;54.56
60228;BME280;46091;46.512;6.626;2023-06-22T10:15:44;96971.00;;;27.31;54.58
60228;BME280;46091;46.512;6.626;2023-06-22T10:17:51;96944.97;;;27.30;54.44
60228;BME280;46091;46.512;6.626;2023-06-22T10:19:54;96943.31;;;27.28;54.68
60228;BME280;46091;46.512;6.626;2023-06-22T10:21:56;96954.19;;;27.28;54.48
60228;BME280;46091;46.512;6.626;2023-06-22T10:23:59;96954.19;;;27.28;54.62
60228;BME280;46091;46.512;6.626;2023-06-22T10:26:08;96955.28;;;27.27;54.23
60228;BME280;46091;46.512;6.626;2023-06-22T10:28:11;96947.16;;;27.27;54.33
60228;BME280;46091;46.512;6.626;2023-06-22T10:30:15;96948.75;;;27.28;54.21
60228;BME280;46091;46.512;6.626;2023-06-22T10:32:18;96927.03;;;27.28;53.97
60228;BME280;46091;46.512;6.626;2023-06-22T10:34:21;96921.63;;;27.28;53.71
60228;BME280;46091;46.512;6.626;2023-06-22T10:36:24;96919.50;;;27.25;53.74
60228;BME280;46091;46.512;6.626;2023-06-22T10:38:27;96908.16;;;27.23;53.41
60228;BME280;46091;46.512;6.626;2023-06-22T10:40:30;96903.31;;;27.20;53.41
60228;BME280;46091;46.512;6.626;2023-06-22T10:42:35;96901.09;;;27.22;53.02
60228;BME280;46091;46.512;6.626;2023-06-22T10:44:38;96900.50;;;27.25;52.70
60228;BME280;46091;46.512;6.626;2023-06-22T10:46:42;96901.53;;;27.30;52.67
60228;BME280;46091;46.512;6.626;2023-06-22T10:48:45;96885.25;;;27.30;52.38
60228;BME280;46091;46.512;6.626;2023-06-22T10:50:48;96867.88;;;27.31;51.85
60228;BME280;46091;46.512;6.626;2023-06-22T10:52:51;96867.56;;;27.32;51.79
60228;BME280;46091;46.512;6.626;2023-06-22T10:54:54;96882.53;;;27.30;51.80
60228;BME280;46091;46.512;6.626;2023-06-22T10:56:57;96890.44;;;27.26;51.63
60228;BME280;46091;46.512;6.626;2023-06-22T10:59:01;96901.00;;;27.27;51.58
60228;BME280;46091;46.512;6.626;2023-06-22T11:01:04;96916.72;;;27.31;51.56
60228;BME280;46091;46.512;6.626;2023-06-22T11:03:07;96930.28;;;27.31;51.27
60228;BME280;46091;46.512;6.626;2023-06-22T11:05:13;96923.75;;;27.32;51.06
60228;BME280;46091;46.512;6.626;2023-06-22T11:07:16;96903.34;;;27.34;51.09
60228;BME280;46091;46.512;6.626;2023-06-22T11:09:21;96902.25;;;27.35;50.98
60228;BME280;46091;46.512;6.626;2023-06-22T11:11:30;96910.69;;;27.34;50.85
60228;BME280;46091;46.512;6.626;2023-06-22T11:13:33;96913.69;;;27.32;51.07
60228;BME280;46091;46.512;6.626;2023-06-22T11:15:38;96914.81;;;27.31;50.98
60228;BME280;46091;46.512;6.626;2023-06-22T11:17:43;96909.06;;;27.33;51.04
60228;BME280;46091;46.512;6.626;2023-06-22T11:19:46;96906.38;;;27.33;51.18
60228;BME280;46091;46.512;6.626;2023-06-22T11:21:49;96906.38;;;27.33;51.21
60228;BME280;46091;46.512;6.626;2023-06-22T11:23:52;96909.88;;;27.33;51.20
60228;BME280;46091;46.512;6.626;2023-06-22T11:25:57;96906.66;;;27.31;51.07
60228;BME280;46091;46.512;6.626;2023-06-22T11:28:02;96897.72;;;27.31;51.26
60228;BME280;46091;46.512;6.626;2023-06-22T11:30:06;96888.97;;;27.34;51.21
60228;BME280;46091;46.512;6.626;2023-06-22T11:32:10;96887.72;;;27.26;51.51
60228;BME280;46091;46.512;6.626;2023-06-22T11:34:15;96870.66;;;27.25;51.31
60228;BME280;46091;46.512;6.626;2023-06-22T11:36:18;96870.03;;;27.28;51.32
60228;BME280;46091;46.512;6.626;2023-06-22T11:38:22;96879.53;;;27.31;51.34
60228;BME280;46091;46.512;6.626;2023-06-22T11:40:25;96893.28;;;27.35;51.38
60228;BME280;46091;46.512;6.626;2023-06-22T11:42:28;96903.03;;;27.36;51.47
60228;BME280;46091;46.512;6.626;2023-06-22T11:44:31;96915.22;;;27.38;51.42
60228;BME280;46091;46.512;6.626;2023-06-22T11:46:34;96917.34;;;27.41;51.58
60228;BME280;46091;46.512;6.626;2023-06-22T11:48:39;96908.59;;;27.44;51.35
60228;BME280;46091;46.512;6.626;2023-06-22T11:50:41;96905.59;;;27.46;51.58
60228;BME280;46091;46.512;6.626;2023-06-22T11:52:44;96934.34;;;27.47;51.40
60228;BME280;46091;46.512;6.626;2023-06-22T11:54:47;96932.72;;;27.46;51.51
60228;BME280;46091;46.512;6.626;2023-06-22T11:56:50;96948.22;;;27.45;51.51
60228;BME280;46091;46.512;6.626;2023-06-22T11:58:55;96965.91;;;27.43;51.49
60228;BME280;46091;46.512;6.626;2023-06-22T12:00:58;96973.25;;;27.42;51.48
60228;BME280;46091;46.512;6.626;2023-06-22T12:03:03;96963.50;;;27.41;51.59
60228;BME280;46091;46.512;6.626;2023-06-22T12:05:08;96926.88;;;27.39;51.39
60228;BME280;46091;46.512;6.626;2023-06-22T12:07:11;96895.22;;;27.34;51.67
60228;BME280;46091;46.512;6.626;2023-06-22T12:09:14;96854.38;;;27.25;51.68
60228;BME280;46091;46.512;6.626;2023-06-22T12:11:17;96862.81;;;27.24;51.61
60228;BME280;46091;46.512;6.626;2023-06-22T12:13:20;96884.81;;;27.22;51.61
60228;BME280;46091;46.512;6.626;2023-06-22T12:15:23;96883.72;;;27.23;51.66
60228;BME280;46091;46.512;6.626;2023-06-22T12:17:26;96874.97;;;27.26;51.51
60228;BME280;46091;46.512;6.626;2023-06-22T12:19:29;96873.56;;;27.29;51.51
60228;BME280;46091;46.512;6.626;2023-06-22T12:21:33;96860.81;;;27.30;51.33
60228;BME280;46091;46.512;6.626;2023-06-22T12:23:36;96865.16;;;27.31;51.36
60228;BME280;46091;46.512;6.626;2023-06-22T12:25:39;96861.31;;;27.32;51.26
60228;BME280;46091;46.512;6.626;2023-06-22T12:27:42;96848.25;;;27.34;51.24
60228;BME280;46091;46.512;6.626;2023-06-22T12:29:51;96851.47;;;27.36;51.26
60228;BME280;46091;46.512;6.626;2023-06-22T12:31:54;96842.22;;;27.37;51.08
60228;BME280;46091;46.512;6.626;2023-06-22T12:33:56;96862.53;;;27.39;51.16
60228;BME280;46091;46.512;6.626;2023-06-22T12:35:59;96861.16;;;27.42;50.90
60228;BME280;46091;46.512;6.626;2023-06-22T12:38:04;96852.09;;;27.46;51.04
60228;BME280;46091;46.512;6.626;2023-06-22T12:40:09;96853.09;;;27.50;50.90
60228;BME280;46091;46.512;6.626;2023-06-22T12:42:12;96862.75;;;27.56;50.73
60228;BME280;46091;46.512;6.626;2023-06-22T12:44:17;96872.22;;;27.59;50.50
60228;BME280;46091;46.512;6.626;2023-06-22T12:46:20;96868.88;;;27.62;50.52
60228;BME280;46091;46.512;6.626;2023-06-22T12:48:22;96866.69;;;27.64;50.48
60228;BME280;46091;46.512;6.626;2023-06-22T12:50:26;96865.00;;;27.68;50.29
60228;BME280;46091;46.512;6.626;2023-06-22T12:52:30;96875.06;;;27.68;50.23
60228;BME280;46091;46.512;6.626;2023-06-22T12:54:35;96874.78;;;27.69;50.14
60228;BME280;46091;46.512;6.626;2023-06-22T12:56:55;96869.84;;;27.71;50.03
60228;BME280;46091;46.512;6.626;2023-06-22T12:58:58;96879.81;;;27.76;49.63
60228;BME280;46091;46.512;6.626;2023-06-22T13:01:03;96866.44;;;27.79;49.67
60228;BME280;46091;46.512;6.626;2023-06-22T13:03:06;96859.06;;;27.80;49.52
60228;BME280;46091;46.512;6.626;2023-06-22T13:05:09;96857.97;;;27.81;49.45
60228;BME280;46091;46.512;6.626;2023-06-22T13:07:12;96859.56;;;27.82;49.37
60228;BME280;46091;46.512;6.626;2023-06-22T13:09:24;96853.53;;;27.85;49.25
60228;BME280;46091;46.512;6.626;2023-06-22T13:11:28;96849.94;;;27.90;49.03
60228;BME280;46091;46.512;6.626;2023-06-22T13:13:31;96840.66;;;27.91;48.80
60228;BME280;46091;46.512;6.626;2023-06-22T13:15:35;96839.56;;;27.92;48.64
60228;BME280;46091;46.512;6.626;2023-06-22T13:17:38;96848.50;;;27.92;48.65
60228;BME280;46091;46.512;6.626;2023-06-22T13:19:41;96842.28;;;27.92;48.60
60228;BME280;46091;46.512;6.626;2023-06-22T13:21:45;96837.63;;;27.92;48.45
60228;BME280;46091;46.512;6.626;2023-06-22T13:23:49;96832.50;;;27.91;48.40
60228;BME280;46091;46.512;6.626;2023-06-22T13:25:52;96830.59;;;27.91;48.38
60228;BME280;46091;46.512;6.626;2023-06-22T13:27:56;96823.75;;;27.94;48.15
60228;BME280;46091;46.512;6.626;2023-06-22T13:29:59;96812.25;;;27.97;48.12
60228;BME280;46091;46.512;6.626;2023-06-22T13:32:02;96794.03;;;27.97;48.07
60228;BME280;46091;46.512;6.626;2023-06-22T13:34:05;96788.34;;;27.99;47.99
60228;BME280;46091;46.512;6.626;2023-06-22T13:36:08;96790.25;;;27.98;48.08
60228;BME280;46091;46.512;6.626;2023-06-22T13:38:11;96782.91;;;27.99;47.97
60228;BME280;46091;46.512;6.626;2023-06-22T13:40:14;96774.75;;;27.99;47.83
60228;BME280;46091;46.512;6.626;2023-06-22T13:42:17;96773.63;;;28.00;47.89
60228;BME280;46091;46.512;6.626;2023-06-22T13:44:22;96770.44;;;27.98;47.85
60228;BME280;46091;46.512;6.626;2023-06-22T13:46:24;96773.63;;;28.00;47.78
60228;BME280;46091;46.512;6.626;2023-06-22T13:48:27;96779.56;;;28.02;47.73
60228;BME280;46091;46.512;6.626;2023-06-22T13:50:31;96765.38;;;28.05;47.63
60228;BME280;46091;46.512;6.626;2023-06-22T13:52:34;96759.31;;;28.08;47.52
60228;BME280;46091;46.512;6.626;2023-06-22T13:54:38;96757.91;;;28.10;47.48
60228;BME280;46091;46.512;6.626;2023-06-22T13:56:41;96757.59;;;28.12;47.28
60228;BME280;46091;46.512;6.626;2023-06-22T13:58:44;96759.69;;;28.15;47.05
60228;BME280;46091;46.512;6.626;2023-06-22T14:00:48;96759.06;;;28.18;46.83
60228;BME280;46091;46.512;6.626;2023-06-22T14:02:57;96760.09;;;28.22;46.85
60228;BME280;46091;46.512;6.626;2023-06-22T14:05:00;96757.56;;;28.26;46.62
60228;BME280;46091;46.512;6.626;2023-06-22T14:07:08;96750.19;;;28.26;46.52
60228;BME280;46091;46.512;6.626;2023-06-22T14:09:11;96762.72;;;28.27;46.33
60228;BME280;46091;46.512;6.626;2023-06-22T14:11:14;96762.72;;;28.27;46.33
60228;BME280;46091;46.512;6.626;2023-06-22T14:13:17;96767.03;;;28.28;46.68
60228;BME280;46091;46.512;6.626;2023-06-22T14:15:20;96769.13;;;28.31;46.19
60228;BME280;46091;46.512;6.626;2023-06-22T14:17:24;96770.25;;;28.30;46.09
60228;BME280;46091;46.512;6.626;2023-06-22T14:19:27;96777.28;;;28.31;45.84
60228;BME280;46091;46.512;6.626;2023-06-22T14:21:33;96780.53;;;28.33;45.81
60228;BME280;46091;46.512;6.626;2023-06-22T14:23:36;96777.28;;;28.31;45.51
60228;BME280;46091;46.512;6.626;2023-06-22T14:25:39;96784.03;;;28.34;45.49
60228;BME280;46091;46.512;6.626;2023-06-22T14:27:42;96779.41;;;28.34;45.47
60228;BME280;46091;46.512;6.626;2023-06-22T14:29:46;96763.09;;;28.34;45.42
60228;BME280;46091;46.512;6.626;2023-06-22T14:31:49;96758.47;;;28.35;45.31
60228;BME280;46091;46.512;6.626;2023-06-22T14:33:53;96740.22;;;28.35;45.10
60228;BME280;46091;46.512;6.626;2023-06-22T14:35:56;96739.13;;;28.36;45.04
60228;BME280;46091;46.512;6.626;2023-06-22T14:37:59;96740.22;;;28.35;44.94
60228;BME280;46091;46.512;6.626;2023-06-22T14:40:02;96741.03;;;28.36;44.81
60228;BME280;46091;46.512;6.626;2023-06-22T14:42:05;96747.28;;;28.36;44.61
60228;BME280;46091;46.512;6.626;2023-06-22T14:44:09;96731.28;;;28.35;44.52
60228;BME280;46091;46.512;6.626;2023-06-22T14:46:12;96713.03;;;28.35;44.40
60228;BME280;46091;46.512;6.626;2023-06-22T14:48:15;96711.63;;;28.38;44.50
60228;BME280;46091;46.512;6.626;2023-06-22T14:50:19;96714.34;;;28.38;44.61
60228;BME280;46091;46.512;6.626;2023-06-22T14:52:22;96713.53;;;28.37;44.66
60228;BME280;46091;46.512;6.626;2023-06-22T14:54:25;96717.38;;;28.36;44.72
60228;BME280;46091;46.512;6.626;2023-06-22T14:56:28;96699.44;;;28.35;44.85
60228;BME280;46091;46.512;6.626;2023-06-22T14:58:33;96701.38;;;28.35;44.87
60228;BME280;46091;46.512;6.626;2023-06-22T15:00:37;96693.00;;;28.31;45.07
60228;BME280;46091;46.512;6.626;2023-06-22T15:02:41;96688.19;;;28.28;45.13
60228;BME280;46091;46.512;6.626;2023-06-22T15:04:44;96693.44;;;28.25;45.38
60228;BME280;46091;46.512;6.626;2023-06-22T15:06:48;96693.25;;;28.21;45.64
60228;BME280;46091;46.512;6.626;2023-06-22T15:08:51;96702.00;;;28.18;45.87
60228;BME280;46091;46.512;6.626;2023-06-22T15:10:54;96703.13;;;28.17;45.95
60228;BME280;46091;46.512;6.626;2023-06-22T15:12:58;96710.16;;;28.18;46.02
60228;BME280;46091;46.512;6.626;2023-06-22T15:15:01;96737.34;;;28.18;46.40
60228;BME280;46091;46.512;6.626;2023-06-22T15:17:04;96786.25;;;28.18;46.39
60228;BME280;46091;46.512;6.626;2023-06-22T15:19:07;96968.66;;;28.17;46.53
60228;BME280;46091;46.512;6.626;2023-06-22T15:21:14;97064.47;;;28.08;46.74
60228;BME280;46091;46.512;6.626;2023-06-22T15:23:19;97063.56;;;27.48;47.37
60228;BME280;46091;46.512;6.626;2023-06-22T15:25:22;97115.47;;;26.80;48.54
60228;BME280;46091;46.512;6.626;2023-06-22T15:27:25;97119.47;;;26.34;49.45
60228;BME280;46091;46.512;6.626;2023-06-22T15:29:27;97146.09;;;25.93;50.81
60228;BME280;46091;46.512;6.626;2023-06-22T15:31:35;97135.59;;;25.42;52.13
60228;BME280;46091;46.512;6.626;2023-06-22T15:33:38;97153.06;;;25.11;52.81
60228;BME280;46091;46.512;6.626;2023-06-22T15:35:41;97149.91;;;24.78;53.52
60228;BME280;46091;46.512;6.626;2023-06-22T15:37:48;97164.81;;;24.65;54.43
60228;BME280;46091;46.512;6.626;2023-06-22T15:39:57;97163.78;;;24.41;55.12
60228;BME280;46091;46.512;6.626;2023-06-22T15:42:00;97140.28;;;24.26;55.42
60228;BME280;46091;46.512;6.626;2023-06-22T15:44:03;97156.75;;;24.20;55.96
60228;BME280;46091;46.512;6.626;2023-06-22T15:46:06;97162.47;;;24.13;56.40
60228;BME280;46091;46.512;6.626;2023-06-22T15:48:09;97163.25;;;24.24;57.18
60228;BME280;46091;46.512;6.626;2023-06-22T15:50:11;97161.34;;;24.29;57.03
60228;BME280;46091;46.512;6.626;2023-06-22T15:52:14;97172.72;;;24.26;57.29
60228;BME280;46091;46.512;6.626;2023-06-22T15:54:20;97182.97;;;24.29;58.17
60228;BME280;46091;46.512;6.626;2023-06-22T15:56:24;97172.44;;;24.28;58.10
60228;BME280;46091;46.512;6.626;2023-06-22T15:58:27;97187.28;;;24.25;58.84
60228;BME280;46091;46.512;6.626;2023-06-22T16:00:30;97190.00;;;24.25;58.95
60228;BME280;46091;46.512;6.626;2023-06-22T16:02:34;97186.22;;;24.26;59.49
60228;BME280;46091;46.512;6.626;2023-06-22T16:04:37;97184.59;;;24.25;60.08
60228;BME280;46091;46.512;6.626;2023-06-22T16:06:40;97185.13;;;24.27;60.30
60228;BME280;46091;46.512;6.626;2023-06-22T16:08:43;97171.63;;;24.27;60.85
60228;BME280;46091;46.512;6.626;2023-06-22T16:10:46;97168.41;;;24.30;61.29
60228;BME280;46091;46.512;6.626;2023-06-22T16:12:51;97165.94;;;24.29;61.51
60228;BME280;46091;46.512;6.626;2023-06-22T16:14:55;97173.50;;;24.27;61.85
60228;BME280;46091;46.512;6.626;2023-06-22T16:16:58;97172.72;;;24.26;62.50
60228;BME280;46091;46.512;6.626;2023-06-22T16:19:04;97175.94;;;24.28;62.59
60228;BME280;46091;46.512;6.626;2023-06-22T16:21:08;97179.75;;;24.32;62.78
60228;BME280;46091;46.512;6.626;2023-06-22T16:23:12;97183.78;;;24.35;63.36